createdAt,value
2022-12-24T00:01:06.607Z,17.36
2022-12-24T00:03:34.548Z,17.43
2022-12-24T00:06:09.704Z,17.52
2022-12-24T00:08:36.670Z,17.63
2022-12-24T00:11:29.128Z,17.88
2022-12-24T00:13:56.128Z,17.66
2022-12-24T00:16:23.086Z,17.09
2022-12-24T00:18:50.137Z,16.56
2022-12-24T00:21:17.176Z,16.86
2022-12-24T00:23:44.591Z,17.49
2022-12-24T00:26:13.298Z,16.73
2022-12-24T00:28:41.338Z,16.64
2022-12-24T00:31:18.202Z,17.41
2022-12-24T00:33:48.712Z,17.19
2022-12-24T00:36:16.948Z,17.43
2022-12-24T00:38:44.661Z,16.68
2022-12-24T00:41:25.836Z,16.68
2022-12-24T00:44:06.586Z,17.71
2022-12-24T00:46:38.835Z,17.78
2022-12-24T00:49:07.533Z,18.56
2022-12-24T00:51:36.081Z,18.05
2022-12-24T00:54:03.338Z,18.04
2022-12-24T00:56:30.607Z,17.36
2022-12-24T00:58:57.581Z,17.64
2022-12-24T01:01:26.027Z,17.91
2022-12-24T01:04:13.879Z,17.62
2022-12-24T01:06:41.055Z,17.39
2022-12-24T01:09:08.189Z,17.04
2022-12-24T01:11:35.109Z,17.03
2022-12-24T01:14:02.026Z,16.78
2022-12-24T01:16:28.997Z,16.93
2022-12-24T01:18:55.914Z,17.04
2022-12-24T01:21:22.864Z,16.90
2022-12-24T01:23:49.787Z,17.59
2022-12-24T01:26:16.749Z,16.77
2022-12-24T01:28:43.675Z,17.29
2022-12-24T01:31:16.992Z,17.87
2022-12-24T01:33:46.943Z,18.09
2022-12-24T01:36:14.594Z,17.40
2022-12-24T01:38:42.316Z,17.43
2022-12-24T01:41:35.753Z,17.28
2022-12-24T01:44:33.459Z,15.97
2022-12-24T01:47:24.035Z,16.20
2022-12-24T01:50:03.848Z,15.29
2022-12-24T01:52:35.639Z,16.08
2022-12-24T01:55:11.089Z,16.08
2022-12-24T01:57:51.691Z,-144.84
2022-12-24T02:00:18.777Z,16.08
2022-12-24T02:02:49.449Z,15.33
2022-12-24T02:05:25.040Z,15.62
2022-12-24T02:07:52.937Z,16.67
2022-12-24T02:10:20.280Z,16.66
2022-12-24T02:12:48.491Z,17.22
2022-12-24T02:15:18.523Z,16.17
2022-12-24T02:18:50.998Z,16.17
2022-12-24T02:21:42.247Z,16.56
2022-12-24T02:24:40.933Z,16.39
2022-12-24T02:27:31.868Z,16.39
2022-12-24T02:30:22.631Z,16.16
2022-12-24T02:32:56.919Z,16.30
2022-12-24T02:35:41.599Z,16.85
2022-12-24T02:38:19.899Z,17.00
2022-12-24T02:41:06.032Z,17.29
2022-12-24T02:43:39.862Z,16.73
2022-12-24T02:46:13.017Z,16.63
2022-12-24T02:48:43.422Z,16.98
2022-12-24T02:51:11.224Z,16.03
2022-12-24T02:53:39.635Z,16.33
2022-12-24T02:56:53.231Z,16.87
2022-12-24T02:59:35.588Z,16.25
2022-12-24T03:02:23.831Z,16.81
2022-12-24T03:04:57.217Z,16.11
2022-12-24T03:07:36.743Z,15.24
2022-12-24T03:10:34.104Z,15.75
2022-12-24T03:13:12.629Z,16.12
2022-12-24T03:15:40.666Z,16.37
2022-12-24T03:18:11.102Z,17.09
2022-12-24T03:20:54.769Z,16.92
2022-12-24T03:23:21.777Z,15.71
2022-12-24T03:25:49.440Z,15.27
2022-12-24T03:28:19.433Z,16.17
2022-12-24T03:30:48.770Z,16.84
2022-12-24T03:33:16.640Z,15.92
2022-12-24T03:35:44.058Z,16.38
2022-12-24T03:38:11.029Z,15.28
2022-12-24T03:40:38.038Z,15.75
2022-12-24T03:43:04.965Z,16.01
2022-12-24T03:45:31.882Z,16.48
2022-12-24T03:47:58.877Z,16.87
2022-12-24T03:50:25.846Z,16.91
2022-12-24T03:52:52.778Z,16.52
2022-12-24T03:55:19.672Z,16.12
2022-12-24T03:57:46.617Z,16.80
2022-12-24T04:00:13.905Z,16.28
2022-12-24T04:02:41.255Z,17.11
2022-12-24T04:05:13.700Z,17.09
2022-12-24T04:07:40.671Z,16.25
2022-12-24T04:10:08.374Z,15.86
2022-12-24T04:12:35.365Z,16.50
2022-12-24T04:15:02.624Z,16.98
2022-12-24T04:17:29.543Z,16.27
2022-12-24T04:19:56.435Z,16.67
2022-12-24T04:22:23.357Z,16.02
2022-12-24T04:24:50.261Z,16.03
2022-12-24T04:27:17.761Z,15.49
2022-12-24T04:29:44.736Z,15.45
2022-12-24T04:32:11.703Z,15.33
2022-12-24T04:34:38.624Z,16.26
2022-12-24T04:37:05.763Z,16.08
2022-12-24T04:39:32.686Z,22.03
2022-12-24T04:41:59.997Z,18.22
2022-12-24T04:44:26.925Z,17.55
2022-12-24T04:46:53.837Z,16.97
2022-12-24T04:49:20.722Z,16.88
2022-12-24T04:51:48.047Z,17.28
2022-12-24T04:54:16.155Z,16.20
2022-12-24T04:56:43.077Z,16.60
2022-12-24T04:59:10.007Z,17.34
2022-12-24T05:01:37.037Z,16.33
2022-12-24T05:04:04.018Z,16.77
2022-12-24T05:06:32.800Z,15.83
2022-12-24T05:09:00.218Z,16.74
2022-12-24T05:11:27.282Z,17.28
2022-12-24T05:13:54.301Z,17.11
2022-12-24T05:16:23.757Z,16.48
2022-12-24T05:18:51.331Z,17.82
2022-12-24T05:21:22.855Z,17.75
2022-12-24T05:24:08.678Z,16.25
2022-12-24T05:26:52.067Z,17.09
2022-12-24T05:29:19.178Z,16.33
2022-12-24T05:31:46.741Z,17.00
2022-12-24T05:34:15.656Z,18.00
2022-12-24T05:36:43.657Z,18.55
2022-12-24T05:39:17.863Z,18.82
2022-12-24T05:41:45.308Z,18.75
2022-12-24T05:44:12.402Z,17.80
2022-12-24T05:46:39.745Z,16.82
2022-12-24T05:49:06.902Z,17.00
2022-12-24T05:51:33.845Z,17.57
2022-12-24T05:54:00.837Z,17.17
2022-12-24T05:56:27.887Z,17.49
2022-12-24T05:58:54.974Z,17.58
2022-12-24T06:01:23.445Z,17.38
2022-12-24T06:03:52.123Z,17.20
2022-12-24T06:06:23.905Z,16.65
2022-12-24T06:08:53.005Z,16.46
2022-12-24T06:11:26.222Z,16.57
2022-12-24T06:13:54.346Z,16.43
2022-12-24T06:16:23.511Z,16.39
2022-12-24T06:18:50.876Z,15.92
2022-12-24T06:21:18.517Z,-144.84
2022-12-24T06:23:46.273Z,-144.84
2022-12-24T06:26:19.434Z,-144.84
2022-12-24T06:28:47.344Z,-144.84
2022-12-24T06:31:18.622Z,-144.84
2022-12-24T06:33:45.595Z,-144.84
2022-12-24T06:36:22.367Z,-144.84
2022-12-24T06:38:50.235Z,-144.84
2022-12-24T06:41:18.877Z,-144.84
2022-12-24T06:43:47.648Z,-144.84
2022-12-24T06:46:15.873Z,-144.84
2022-12-24T06:48:45.291Z,-144.84
2022-12-24T06:51:13.508Z,-144.84
2022-12-24T06:53:41.330Z,-144.84
2022-12-24T06:56:12.520Z,-144.84
2022-12-24T06:58:40.758Z,-144.84
2022-12-24T07:01:11.840Z,-144.84
2022-12-24T07:03:39.605Z,-144.84
2022-12-24T07:06:07.432Z,-144.84
2022-12-24T07:08:36.128Z,-144.84
2022-12-24T07:11:03.552Z,-144.84
2022-12-24T07:13:31.661Z,-144.84
2022-12-24T07:16:02.514Z,-144.84
2022-12-24T07:18:30.069Z,-144.84
2022-12-24T07:20:57.542Z,-144.84
2022-12-24T07:23:24.894Z,-144.84
2022-12-24T07:25:51.836Z,-144.84
2022-12-24T07:28:22.404Z,-144.84
2022-12-24T07:30:52.659Z,-144.84
2022-12-24T07:33:19.632Z,-144.84
2022-12-24T07:35:50.796Z,-144.84
2022-12-24T07:38:20.870Z,-144.84
2022-12-24T07:40:47.777Z,-144.84
2022-12-24T07:43:14.676Z,-144.84
2022-12-24T07:45:41.598Z,-144.84
2022-12-24T07:48:08.510Z,-144.84
2022-12-24T07:50:35.436Z,-144.84
2022-12-24T07:53:02.992Z,-144.84
2022-12-24T07:55:30.219Z,-144.84
2022-12-24T07:57:57.196Z,-144.84
2022-12-24T08:00:24.230Z,-144.84
2022-12-24T08:02:51.421Z,-144.84
2022-12-24T08:05:18.884Z,-144.84
2022-12-24T08:07:45.791Z,-144.84
2022-12-24T08:10:12.700Z,-144.84
2022-12-24T08:12:39.782Z,-144.84
2022-12-24T08:15:12.715Z,-144.84
2022-12-24T08:17:40.211Z,-144.84
2022-12-24T08:20:08.255Z,-144.84
2022-12-24T08:22:35.180Z,-144.84
2022-12-24T08:25:02.079Z,-144.84
2022-12-24T08:27:28.999Z,-144.84
2022-12-24T08:29:55.921Z,-144.84
2022-12-24T08:32:22.802Z,-144.84
2022-12-24T08:34:49.713Z,-144.84
2022-12-24T08:37:16.641Z,-144.84
2022-12-24T08:39:43.595Z,-144.84
2022-12-24T08:42:10.551Z,-144.84
2022-12-24T08:44:37.559Z,-144.84
2022-12-24T08:47:04.475Z,-144.84
2022-12-24T08:49:31.459Z,-144.84
2022-12-24T08:51:59.144Z,-144.84
2022-12-24T08:54:26.292Z,-144.84
2022-12-24T08:56:53.204Z,-144.84
2022-12-24T08:59:20.315Z,-144.84
2022-12-24T09:01:47.351Z,-144.84
2022-12-24T09:04:14.567Z,-144.84
2022-12-24T09:06:41.524Z,-144.84
2022-12-24T09:09:09.617Z,-144.84
2022-12-24T09:11:36.788Z,-144.84
2022-12-24T09:14:03.973Z,-144.84
2022-12-24T09:16:31.306Z,-144.84
2022-12-24T09:18:58.951Z,-144.84
2022-12-24T09:21:25.910Z,-144.84
2022-12-24T09:23:52.858Z,-144.84
2022-12-24T09:26:22.408Z,-144.84
2022-12-24T09:28:49.878Z,-144.84
2022-12-24T09:31:17.622Z,-144.84
2022-12-24T09:33:46.926Z,-144.84
2022-12-24T09:36:14.196Z,-144.84
2022-12-24T09:38:41.191Z,-144.84
2022-12-24T09:41:40.467Z,-144.84
2022-12-24T09:44:34.798Z,-144.84
2022-12-24T09:47:11.495Z,-144.84
2022-12-24T09:49:44.346Z,-144.84
2022-12-24T09:52:23.596Z,-144.84
2022-12-24T09:55:12.170Z,-144.84
2022-12-24T09:57:42.435Z,-144.84
2022-12-24T10:00:24.266Z,-144.84
2022-12-24T10:02:51.438Z,-144.84
2022-12-24T10:05:33.588Z,-144.84
2022-12-24T10:08:27.105Z,-144.84
2022-12-24T10:11:56.659Z,-144.84
2022-12-24T10:14:44.286Z,-144.84
2022-12-24T10:17:44.410Z,-144.84
2022-12-24T10:21:04.533Z,-144.84
2022-12-24T10:23:37.058Z,-144.84
2022-12-24T10:26:30.261Z,-144.84
2022-12-24T10:29:39.295Z,-144.84
2022-12-24T10:32:09.107Z,-144.84
2022-12-24T10:34:46.236Z,-144.84
2022-12-24T10:37:22.852Z,-144.84
2022-12-24T10:39:49.769Z,-144.84
2022-12-24T10:42:18.880Z,-144.84
2022-12-24T10:44:55.225Z,-144.84
2022-12-24T10:47:23.726Z,-144.84
2022-12-24T10:50:01.900Z,-144.84
2022-12-24T10:55:08.365Z,17.49
2022-12-24T10:57:35.661Z,16.13
2022-12-24T11:00:06.478Z,16.01
2022-12-24T11:02:37.419Z,16.32
2022-12-24T11:05:27.894Z,16.59
2022-12-24T11:08:26.232Z,16.66
2022-12-24T11:11:04.714Z,16.99
2022-12-24T11:13:40.106Z,16.51
2022-12-24T11:16:29.740Z,16.64
2022-12-24T11:19:00.168Z,16.04
2022-12-24T11:21:38.131Z,16.22
2022-12-24T11:24:14.206Z,17.15
2022-12-24T11:26:43.886Z,16.70
2022-12-24T11:29:28.724Z,16.45
2022-12-24T11:32:31.295Z,16.75
2022-12-24T11:35:07.916Z,17.15
2022-12-24T11:37:35.152Z,17.15
2022-12-24T11:40:03.488Z,16.06
2022-12-24T11:42:38.068Z,16.94
2022-12-24T11:45:27.953Z,16.96
2022-12-24T11:47:55.878Z,16.00
2022-12-24T11:50:38.897Z,17.17
2022-12-24T11:53:25.574Z,17.32
2022-12-24T11:56:08.786Z,16.86
2022-12-24T11:58:52.315Z,17.02
2022-12-24T12:01:30.361Z,16.89
2022-12-24T12:04:14.867Z,16.75
2022-12-24T12:07:20.870Z,16.42
2022-12-24T12:10:21.189Z,16.39
2022-12-24T12:13:11.228Z,16.50
2022-12-24T12:16:01.589Z,16.79
2022-12-24T12:18:41.776Z,16.64
2022-12-24T12:21:22.221Z,16.72
2022-12-24T12:24:07.141Z,17.08
2022-12-24T12:26:34.428Z,16.95
2022-12-24T12:29:28.751Z,17.39
2022-12-24T12:32:04.237Z,17.21
2022-12-24T12:34:54.893Z,16.88
2022-12-24T12:37:37.272Z,17.21
2022-12-24T12:40:13.405Z,17.32
2022-12-24T12:42:44.425Z,17.12
2022-12-24T12:45:34.867Z,16.73
2022-12-24T12:48:45.096Z,17.25
2022-12-24T12:51:28.871Z,17.56
2022-12-24T12:54:16.867Z,17.69
2022-12-24T12:56:49.509Z,17.77
2022-12-24T12:59:26.196Z,17.76
2022-12-24T13:02:26.459Z,17.76
2022-12-24T13:05:49.644Z,17.75
2022-12-24T13:08:47.595Z,17.88
2022-12-24T13:11:46.712Z,17.51
2022-12-24T13:14:53.562Z,17.02
2022-12-24T13:18:09.595Z,17.69
2022-12-24T13:20:47.616Z,17.63
2022-12-24T13:23:21.529Z,17.45
2022-12-24T13:25:55.278Z,17.68
2022-12-24T13:28:25.332Z,17.85
2022-12-24T13:31:02.176Z,17.83
2022-12-24T13:33:38.729Z,17.78
2022-12-24T13:36:08.015Z,17.63
2022-12-24T13:38:51.751Z,17.72
2022-12-24T13:41:39.450Z,17.18
2022-12-24T13:44:09.184Z,17.43
2022-12-24T13:47:15.877Z,17.79
2022-12-24T13:49:50.118Z,17.92
2022-12-24T13:52:22.385Z,17.81
2022-12-24T13:55:06.711Z,17.84
2022-12-24T13:57:53.605Z,17.77
2022-12-24T14:00:43.197Z,17.62
2022-12-24T14:03:13.292Z,17.64
2022-12-24T14:05:43.225Z,17.61
2022-12-24T14:08:14.616Z,17.64
2022-12-24T14:10:57.813Z,17.73
2022-12-24T14:13:40.547Z,17.92
2022-12-24T14:16:31.078Z,17.91
2022-12-24T14:19:01.347Z,17.62
2022-12-24T14:22:05.482Z,17.79
2022-12-24T14:24:37.651Z,17.80
2022-12-24T14:27:15.222Z,18.03
2022-12-24T14:30:06.119Z,17.97
2022-12-24T14:32:39.678Z,17.80
2022-12-24T14:35:14.028Z,17.70
2022-12-24T14:37:46.408Z,17.11
2022-12-24T14:40:18.908Z,17.45
2022-12-24T14:43:06.079Z,17.43
2022-12-24T14:45:50.776Z,17.39
2022-12-24T14:48:52.740Z,17.46
2022-12-24T14:51:43.260Z,16.71
2022-12-24T14:54:35.180Z,17.14
2022-12-24T14:57:12.610Z,16.48
2022-12-24T15:13:39.633Z,14.65
2022-12-24T15:16:12.913Z,14.71
2022-12-24T15:18:47.150Z,14.86
2022-12-24T15:21:27.838Z,14.87
2022-12-24T15:23:55.149Z,14.63
2022-12-24T15:26:36.123Z,14.86
2022-12-24T15:29:21.133Z,15.03
2022-12-24T15:31:54.482Z,15.24
2022-12-24T15:34:37.200Z,15.27
2022-12-24T15:37:30.447Z,15.04
2022-12-24T15:40:20.714Z,15.03
2022-12-24T15:42:48.071Z,14.79
2022-12-24T15:45:28.390Z,14.95
2022-12-24T15:48:06.349Z,14.91
2022-12-24T15:50:46.123Z,14.89
2022-12-24T15:53:20.300Z,14.94
2022-12-24T15:56:00.560Z,15.04
2022-12-24T15:58:31.442Z,15.01
2022-12-24T16:01:13.845Z,15.12
2022-12-24T16:03:55.540Z,15.08
2022-12-24T16:06:23.273Z,14.91
2022-12-24T16:08:51.774Z,14.89
2022-12-24T16:11:33.849Z,15.01
2022-12-24T16:14:18.925Z,15.01
2022-12-24T16:16:52.796Z,14.99
2022-12-24T16:19:34.216Z,15.08
2022-12-24T16:22:24.858Z,14.88
2022-12-24T16:24:52.653Z,14.82
2022-12-24T16:27:19.665Z,14.74
2022-12-24T16:29:46.971Z,14.84
2022-12-24T16:32:35.946Z,15.19
2022-12-24T16:35:06.022Z,15.23
2022-12-24T16:37:33.365Z,15.12
2022-12-24T16:40:04.651Z,15.36
2022-12-24T16:42:50.628Z,15.18
2022-12-24T16:45:17.917Z,15.04
2022-12-24T16:47:45.196Z,15.02
2022-12-24T16:50:16.710Z,15.22
2022-12-24T16:52:44.427Z,15.09
2022-12-24T16:55:15.177Z,15.13
2022-12-24T16:57:43.566Z,14.91
2022-12-24T17:00:23.099Z,14.90
2022-12-24T17:02:51.239Z,14.92
2022-12-24T17:05:18.921Z,14.90
2022-12-24T17:07:45.899Z,14.80
2022-12-24T17:10:14.370Z,14.92
2022-12-24T17:12:42.258Z,14.98
2022-12-24T17:15:09.912Z,15.01
2022-12-24T17:17:37.264Z,14.95
2022-12-24T17:20:05.219Z,15.08
2022-12-24T17:22:32.152Z,14.84
2022-12-24T17:24:59.526Z,14.81
2022-12-24T17:27:26.877Z,14.96
2022-12-24T17:29:54.273Z,15.01
2022-12-24T17:32:23.646Z,14.96
2022-12-24T17:34:50.585Z,14.98
2022-12-24T17:37:17.917Z,14.93
2022-12-24T17:39:45.365Z,14.82
2022-12-24T17:42:12.277Z,14.68
2022-12-24T17:44:39.639Z,14.59
2022-12-24T17:47:06.563Z,14.61
2022-12-24T17:49:33.640Z,14.82
2022-12-24T17:52:00.956Z,14.71
2022-12-24T17:54:27.973Z,14.31
2022-12-24T17:56:55.312Z,14.50
2022-12-24T17:59:22.365Z,14.64
2022-12-24T18:01:49.575Z,14.89
2022-12-24T18:04:17.104Z,14.81
2022-12-24T18:06:48.954Z,14.84
2022-12-24T18:09:17.222Z,14.88
2022-12-24T18:11:44.184Z,14.77
2022-12-24T18:14:13.932Z,14.96
2022-12-24T18:16:41.870Z,14.95
2022-12-24T18:19:12.291Z,14.97
2022-12-24T18:21:40.049Z,14.82
2022-12-24T18:24:07.874Z,14.83
2022-12-24T18:26:35.259Z,14.75
2022-12-24T18:29:04.595Z,14.67
2022-12-24T18:31:33.648Z,14.81
2022-12-24T18:34:02.889Z,14.73
2022-12-24T18:36:30.151Z,14.77
2022-12-24T18:38:57.739Z,14.61
2022-12-24T18:41:28.851Z,14.62
2022-12-24T18:44:09.957Z,14.74
2022-12-24T18:46:37.371Z,14.76
2022-12-24T18:49:04.367Z,14.28
2022-12-24T18:51:35.283Z,14.80
2022-12-24T18:54:03.217Z,14.74
2022-12-24T18:56:31.031Z,14.75
2022-12-24T18:59:00.925Z,14.80
2022-12-24T19:01:34.444Z,14.78
2022-12-24T19:04:02.617Z,14.75
2022-12-24T19:06:29.971Z,14.62
2022-12-24T19:09:00.338Z,14.55
2022-12-24T19:11:32.615Z,14.67
2022-12-24T19:14:01.302Z,14.58
2022-12-24T19:16:30.849Z,14.70
2022-12-24T19:18:57.958Z,14.64
2022-12-24T19:21:25.217Z,14.62
2022-12-24T19:23:52.309Z,14.52
2022-12-24T19:26:20.432Z,14.66
2022-12-24T19:28:47.880Z,14.64
2022-12-24T19:31:21.532Z,14.51
2022-12-24T19:33:56.870Z,14.60
2022-12-24T19:36:30.510Z,14.62
2022-12-24T19:38:58.769Z,14.57
2022-12-24T19:41:29.380Z,14.65
2022-12-24T19:44:00.417Z,14.58
2022-12-24T19:46:31.702Z,14.67
2022-12-24T19:49:02.305Z,14.63
2022-12-24T19:51:30.005Z,14.50
2022-12-24T19:53:59.246Z,14.63
2022-12-24T19:56:29.574Z,14.58
2022-12-24T19:58:57.859Z,13.89
2022-12-24T20:01:28.192Z,14.05
2022-12-24T20:03:56.302Z,14.22
2022-12-24T20:06:28.265Z,14.56
2022-12-24T20:09:07.023Z,14.64
2022-12-24T20:11:34.927Z,14.06
2022-12-24T20:14:04.132Z,14.52
2022-12-24T20:16:31.957Z,13.30
2022-12-24T20:19:03.582Z,14.28
2022-12-24T20:21:31.207Z,14.43
2022-12-24T20:23:58.563Z,14.84
2022-12-24T20:26:28.972Z,15.06
2022-12-24T20:28:56.316Z,14.75
2022-12-24T20:31:29.997Z,14.79
2022-12-24T20:33:59.450Z,14.85
2022-12-24T20:36:29.902Z,14.85
2022-12-24T20:38:58.445Z,14.18
2022-12-24T20:41:28.264Z,14.50
2022-12-24T20:43:58.611Z,14.55
2022-12-24T20:46:26.304Z,14.53
2022-12-24T20:48:53.351Z,14.62
2022-12-24T20:51:26.401Z,14.55
2022-12-24T20:53:56.656Z,13.49
2022-12-24T20:56:24.418Z,14.29
2022-12-24T20:58:52.215Z,14.71
2022-12-24T21:01:27.090Z,14.60
2022-12-24T21:03:56.462Z,14.83
2022-12-24T21:06:24.544Z,14.71
2022-12-24T21:08:53.205Z,13.45
2022-12-24T21:11:40.065Z,13.78
2022-12-24T21:14:07.376Z,14.24
2022-12-24T21:16:36.915Z,14.52
2022-12-24T21:19:05.993Z,14.20
2022-12-24T21:21:34.593Z,14.44
2022-12-24T21:24:02.369Z,13.99
2022-12-24T21:26:29.444Z,13.97
2022-12-24T21:28:56.705Z,13.79
2022-12-24T21:31:23.772Z,13.87
2022-12-24T21:33:51.256Z,14.19
2022-12-24T21:36:21.288Z,13.84
2022-12-24T21:38:48.811Z,13.94
2022-12-24T21:41:19.632Z,13.79
2022-12-24T21:43:46.724Z,13.36
2022-12-24T21:46:18.535Z,13.54
2022-12-24T21:49:04.568Z,13.86
2022-12-24T21:51:32.026Z,14.36
2022-12-24T21:54:18.032Z,13.54
2022-12-24T21:57:03.734Z,13.98
2022-12-24T21:59:31.183Z,13.79
2022-12-24T22:02:01.026Z,13.92
2022-12-24T22:04:31.924Z,14.11
2022-12-24T22:07:17.885Z,14.06
2022-12-24T22:10:03.748Z,13.58
2022-12-24T22:12:33.340Z,13.72
2022-12-24T22:15:00.855Z,14.24
2022-12-24T22:17:28.608Z,14.21
2022-12-24T22:19:55.586Z,13.83
2022-12-24T22:22:23.715Z,14.18
2022-12-24T22:24:51.491Z,13.38
2022-12-24T22:27:18.994Z,13.86
2022-12-24T22:29:46.611Z,13.30
2022-12-24T22:32:13.595Z,13.84
2022-12-24T22:34:40.633Z,13.34
2022-12-24T22:37:07.583Z,13.24
2022-12-24T22:39:34.537Z,13.77
2022-12-24T22:42:01.840Z,13.49
2022-12-24T22:44:29.089Z,13.97
2022-12-24T22:46:56.372Z,13.32
2022-12-24T22:49:23.667Z,13.59
2022-12-24T22:51:50.584Z,13.62
2022-12-24T22:54:17.635Z,14.01
2022-12-24T22:56:45.230Z,13.81
2022-12-24T22:59:15.242Z,13.80
2022-12-24T23:01:45.668Z,13.88
2022-12-24T23:04:14.008Z,14.13
2022-12-24T23:06:41.704Z,14.32
2022-12-24T23:09:12.490Z,13.89
2022-12-24T23:11:40.754Z,13.96
2022-12-24T23:14:32.583Z,14.45
2022-12-24T23:16:59.511Z,13.69
2022-12-24T23:19:26.426Z,14.23
2022-12-24T23:21:53.801Z,14.36
2022-12-24T23:24:21.132Z,14.57
2022-12-24T23:26:48.435Z,13.69
2022-12-24T23:29:15.358Z,14.15
2022-12-24T23:31:42.846Z,14.63
2022-12-24T23:34:09.774Z,14.59
2022-12-24T23:36:36.770Z,14.43
2022-12-24T23:39:04.569Z,14.37
2022-12-24T23:41:31.518Z,14.38
2022-12-24T23:43:58.438Z,14.46
2022-12-24T23:46:25.800Z,14.63
2022-12-24T23:48:57.091Z,14.39
2022-12-24T23:51:27.002Z,14.09
2022-12-24T23:53:55.912Z,14.35
2022-12-24T23:56:25.401Z,14.62
2022-12-24T23:58:52.778Z,14.43
